Etzikom, Canada
Current Conditions -  °F | °C
As of 10:00 PM on Wednesday 22 Oct 2014 (Local Time) from CYXH Reporting Station
Clear Clear  
Wind Chill: 50°   Ceiling: Unl
Heat Index: 50°   Visibility: 9mi
Dew Point: 37°   Wind: 12mph
Humidity: 62%   Direction: 220°SW
Pressure: 29.73"   Gusts: 17mph
Location:  49.48°N, 111.1°W
Report Text: CYXH 230400Z AUTO 22010G15KT 9SM CLR 10/03 A2973 RMK SLP076 DENSITY ALT 2500FT
Loading
Personal Weather Stations






























Interactive Weather Map
Tropical Storm Tracking
New forecast layout! Learn more

10-Day Weather Forecast

Advertisements
Track Severe Weather on mobile